createdAt,value
2022-10-01T00:00:51.111Z,898.49
2022-10-01T00:01:50.884Z,898.98
2022-10-01T00:02:50.933Z,899.11
2022-10-01T00:03:51.073Z,899.68
2022-10-01T00:04:50.832Z,899.80
2022-10-01T00:05:50.804Z,899.97
2022-10-01T00:06:50.814Z,900.08
2022-10-01T00:07:50.779Z,899.82
2022-10-01T00:08:50.787Z,899.91
2022-10-01T00:09:50.743Z,899.62
2022-10-01T00:10:50.752Z,900.01
2022-10-01T00:11:50.742Z,900.14
2022-10-01T00:12:50.717Z,900.20
2022-10-01T00:13:50.718Z,900.19
2022-10-01T00:14:50.703Z,900.47
2022-10-01T00:15:50.673Z,900.61
2022-10-01T00:16:50.980Z,900.83
2022-10-01T00:17:50.923Z,900.26
2022-10-01T00:18:50.661Z,899.65
2022-10-01T00:19:50.643Z,899.21
2022-10-01T00:20:50.635Z,899.11
2022-10-01T00:21:50.634Z,899.08
2022-10-01T00:22:50.603Z,898.90
2022-10-01T00:23:50.615Z,898.43
2022-10-01T00:24:50.591Z,897.46
2022-10-01T00:25:50.564Z,897.20
2022-10-01T00:26:50.579Z,897.10
2022-10-01T00:27:50.612Z,896.79
2022-10-01T00:28:50.535Z,896.22
2022-10-01T00:29:50.519Z,895.87
2022-10-01T00:30:50.797Z,895.25
2022-10-01T00:31:50.610Z,894.02
2022-10-01T00:32:50.484Z,892.23
2022-10-01T00:33:50.509Z,891.52
2022-10-01T00:34:50.478Z,891.27
2022-10-01T00:35:50.456Z,890.87
2022-10-01T00:36:50.449Z,890.84
2022-10-01T00:37:50.724Z,890.78
2022-10-01T00:38:50.441Z,891.02
2022-10-01T00:39:50.415Z,891.09
2022-10-01T00:40:50.428Z,891.31
2022-10-01T00:41:50.414Z,891.69
2022-10-01T00:42:50.366Z,891.86
2022-10-01T00:43:50.368Z,891.16
2022-10-01T00:44:50.390Z,890.42
2022-10-01T00:45:50.389Z,890.88
2022-10-01T00:46:50.336Z,891.22
2022-10-01T00:47:50.337Z,891.17
2022-10-01T00:48:50.298Z,890.29
2022-10-01T00:49:50.296Z,889.96
2022-10-01T00:50:50.284Z,889.70
2022-10-01T00:51:50.286Z,889.39
2022-10-01T00:52:50.260Z,888.93
2022-10-01T00:53:50.258Z,888.47
2022-10-01T00:54:50.252Z,887.81
2022-10-01T00:55:50.249Z,887.59
2022-10-01T00:56:50.220Z,887.30
2022-10-01T00:57:50.529Z,886.96
2022-10-01T00:58:50.223Z,887.46
2022-10-01T00:59:50.186Z,886.96
2022-10-01T01:00:50.169Z,886.98
2022-10-01T01:01:50.584Z,886.85
2022-10-01T01:02:50.231Z,886.71
2022-10-01T01:03:50.132Z,886.17
2022-10-01T01:04:50.159Z,885.97
2022-10-01T01:05:50.110Z,886.05
2022-10-01T01:06:50.119Z,886.82
2022-10-01T01:07:50.091Z,887.35
2022-10-01T01:08:50.370Z,887.67
2022-10-01T01:09:50.069Z,888.70
2022-10-01T01:10:50.055Z,889.76
2022-10-01T01:11:50.331Z,890.09
2022-10-01T01:12:50.050Z,891.37
2022-10-01T01:13:50.023Z,892.51
2022-10-01T01:14:50.029Z,894.04
2022-10-01T01:15:50.311Z,894.78
2022-10-01T01:16:50.013Z,896.92
2022-10-01T01:17:49.983Z,899.03
2022-10-01T01:18:50.284Z,900.73
2022-10-01T01:19:49.965Z,902.99
2022-10-01T01:20:49.987Z,905.25
2022-10-01T01:21:51.066Z,908.26
2022-10-01T01:22:49.940Z,911.54
2022-10-01T01:23:49.905Z,913.68
2022-10-01T01:24:49.910Z,914.84
2022-10-01T01:25:49.915Z,914.96
2022-10-01T01:26:49.903Z,915.62
2022-10-01T01:27:49.914Z,916.67
2022-10-01T01:28:49.887Z,918.77
2022-10-01T01:29:49.853Z,920.15
2022-10-01T01:30:49.895Z,921.61
2022-10-01T01:31:49.823Z,922.75
2022-10-01T01:32:49.826Z,924.26
2022-10-01T01:33:49.812Z,925.73
2022-10-01T01:34:49.784Z,927.21
2022-10-01T01:35:49.785Z,928.73
2022-10-01T01:36:49.787Z,930.08
2022-10-01T01:37:49.754Z,931.06
2022-10-01T01:38:49.736Z,931.59
2022-10-01T01:39:50.044Z,932.40
2022-10-01T01:40:49.727Z,932.21
2022-10-01T01:41:49.714Z,933.53
2022-10-01T01:42:50.008Z,934.77
2022-10-01T01:43:49.988Z,933.77
2022-10-01T01:44:49.714Z,932.48
2022-10-01T01:45:49.715Z,931.80
2022-10-01T01:46:49.687Z,931.90
2022-10-01T01:47:49.652Z,932.06
2022-10-01T01:48:50.537Z,933.50
2022-10-01T01:49:49.936Z,935.62
2022-10-01T01:50:49.614Z,937.30
2022-10-01T01:51:49.598Z,938.60
2022-10-01T01:52:49.634Z,939.77
2022-10-01T01:53:49.856Z,940.11
2022-10-01T01:54:49.556Z,941.76
2022-10-01T01:55:49.541Z,943.73
2022-10-01T01:56:49.559Z,945.66
2022-10-01T01:57:49.528Z,946.38
2022-10-01T01:58:49.527Z,947.52
2022-10-01T01:59:49.571Z,948.08
2022-10-01T02:00:49.507Z,948.50
2022-10-01T02:01:49.637Z,948.78
2022-10-01T02:02:49.517Z,949.17
2022-10-01T02:03:49.482Z,948.79
2022-10-01T02:04:49.448Z,949.05
2022-10-01T02:05:49.438Z,949.98
2022-10-01T02:06:49.449Z,951.36
2022-10-01T02:07:49.438Z,952.45
2022-10-01T02:08:49.401Z,952.99
2022-10-01T02:09:49.397Z,954.59
2022-10-01T02:10:49.650Z,956.13
2022-10-01T02:11:49.377Z,957.97
2022-10-01T02:12:49.345Z,958.73
2022-10-01T02:13:49.355Z,959.36
2022-10-01T02:14:49.339Z,959.52
2022-10-01T02:15:49.347Z,959.70
2022-10-01T02:16:49.355Z,959.55
2022-10-01T02:17:49.308Z,958.73
2022-10-01T02:18:49.287Z,959.42
2022-10-01T02:19:50.107Z,961.18
2022-10-01T02:20:49.287Z,962.79
2022-10-01T02:21:49.849Z,963.07
2022-10-01T02:22:49.239Z,963.76
2022-10-01T02:23:49.249Z,964.59
2022-10-01T02:24:49.485Z,965.30
2022-10-01T02:25:49.206Z,965.56
2022-10-01T02:26:49.197Z,966.70
2022-10-01T02:27:49.477Z,966.65
2022-10-01T02:28:49.170Z,967.37
2022-10-01T02:29:49.150Z,967.98
2022-10-01T02:30:49.433Z,968.34
2022-10-01T02:31:49.160Z,968.29
2022-10-01T02:32:49.124Z,968.39
2022-10-01T02:33:49.108Z,967.81
2022-10-01T02:34:49.406Z,967.21
2022-10-01T02:35:49.073Z,967.76
2022-10-01T02:36:49.099Z,967.27
2022-10-01T02:37:49.071Z,968.13
2022-10-01T02:38:49.341Z,968.70
2022-10-01T02:39:49.033Z,969.08
2022-10-01T02:40:49.021Z,968.77
2022-10-01T02:41:49.031Z,968.47
2022-10-01T02:42:48.998Z,968.16
2022-10-01T02:43:48.991Z,967.64
2022-10-01T02:44:49.001Z,968.15
2022-10-01T02:45:49.012Z,968.24
2022-10-01T02:46:48.963Z,967.65
2022-10-01T02:47:48.952Z,967.59
2022-10-01T02:48:48.953Z,967.35
2022-10-01T02:49:48.916Z,966.60
2022-10-01T02:50:48.910Z,967.25
2022-10-01T02:51:48.923Z,965.84
2022-10-01T02:52:48.913Z,964.72
2022-10-01T02:53:48.875Z,964.71
2022-10-01T02:54:48.893Z,964.72
2022-10-01T02:55:48.866Z,965.09
2022-10-01T02:56:49.868Z,964.32
2022-10-01T02:57:48.828Z,964.28
2022-10-01T02:58:48.836Z,964.66
2022-10-01T02:59:49.175Z,964.74
2022-10-01T03:00:48.784Z,964.31
2022-10-01T03:01:48.889Z,964.58
2022-10-01T03:02:48.810Z,964.48
2022-10-01T03:03:48.756Z,963.68
2022-10-01T03:04:48.742Z,963.50
2022-10-01T03:05:48.774Z,962.63
2022-10-01T03:06:48.823Z,961.37
2022-10-01T03:07:48.715Z,960.99
2022-10-01T03:08:48.725Z,960.45
2022-10-01T03:09:48.714Z,959.51
2022-10-01T03:10:48.674Z,958.74
2022-10-01T03:11:48.955Z,958.37
2022-10-01T03:12:48.656Z,959.02
2022-10-01T03:13:48.637Z,959.53
2022-10-01T03:14:48.623Z,959.33
2022-10-01T03:15:48.988Z,958.02
2022-10-01T03:16:48.624Z,956.67
2022-10-01T03:17:48.600Z,956.14
2022-10-01T03:18:48.607Z,954.65
2022-10-01T03:19:48.576Z,953.61
2022-10-01T03:20:48.549Z,952.00
2022-10-01T03:21:48.556Z,951.14
2022-10-01T03:22:48.802Z,950.44
2022-10-01T03:23:48.526Z,950.30
2022-10-01T03:24:48.505Z,949.79
2022-10-01T03:25:48.786Z,949.91
2022-10-01T03:26:48.769Z,949.85
2022-10-01T03:27:48.507Z,949.52
2022-10-01T03:28:48.450Z,948.63
2022-10-01T03:29:48.460Z,949.85
2022-10-01T03:30:48.439Z,951.18
2022-10-01T03:31:48.540Z,950.41
2022-10-01T03:32:48.717Z,951.11
2022-10-01T03:33:49.521Z,949.92
2022-10-01T03:34:48.388Z,948.96
2022-10-01T03:35:48.410Z,947.77
2022-10-01T03:36:48.689Z,947.01
2022-10-01T03:37:48.349Z,946.81
2022-10-01T03:38:48.345Z,946.76
2022-10-01T03:39:48.621Z,946.75
2022-10-01T03:40:48.343Z,946.64
2022-10-01T03:41:48.308Z,946.39
2022-10-01T03:42:48.318Z,945.57
2022-10-01T03:43:48.290Z,944.94
2022-10-01T03:44:48.278Z,946.21
2022-10-01T03:45:48.315Z,946.19
2022-10-01T03:46:48.280Z,945.12
2022-10-01T03:47:48.230Z,945.44
2022-10-01T03:48:48.229Z,945.95
2022-10-01T03:49:48.216Z,946.03
2022-10-01T03:50:48.222Z,944.66
2022-10-01T03:51:48.213Z,945.80
2022-10-01T03:52:48.205Z,945.15
2022-10-01T03:53:48.189Z,944.92
2022-10-01T03:54:48.159Z,944.12
2022-10-01T03:55:48.140Z,943.82
2022-10-01T03:56:48.173Z,944.50
2022-10-01T03:57:48.124Z,944.71
2022-10-01T03:58:48.104Z,944.88
2022-10-01T03:59:48.092Z,946.24
2022-10-01T04:00:48.114Z,947.25
2022-10-01T04:01:48.191Z,947.70
2022-10-01T04:02:48.086Z,948.02
2022-10-01T04:03:48.074Z,949.28
2022-10-01T04:04:48.039Z,950.85
2022-10-01T04:05:48.031Z,951.01
2022-10-01T04:06:48.062Z,951.54
2022-10-01T04:07:48.002Z,952.16
2022-10-01T04:08:47.993Z,951.98
2022-10-01T04:09:47.980Z,951.44
2022-10-01T04:10:47.992Z,951.47
2022-10-01T04:11:48.247Z,950.27
2022-10-01T04:12:47.941Z,949.53
2022-10-01T04:13:48.897Z,949.40
2022-10-01T04:14:47.931Z,949.92
2022-10-01T04:15:47.964Z,950.85
2022-10-01T04:16:47.907Z,950.64
2022-10-01T04:17:47.911Z,950.21
2022-10-01T04:18:47.886Z,950.63
2022-10-01T04:19:47.863Z,951.09
2022-10-01T04:20:47.873Z,950.29
2022-10-01T04:21:47.874Z,950.27
2022-10-01T04:22:47.827Z,949.73
2022-10-01T04:23:47.813Z,949.12
2022-10-01T04:24:47.812Z,949.48
2022-10-01T04:25:47.813Z,949.40
2022-10-01T04:26:47.798Z,948.53
2022-10-01T04:27:47.832Z,947.64
2022-10-01T04:28:48.058Z,946.77
2022-10-01T04:29:47.744Z,945.82
2022-10-01T04:30:47.764Z,945.44
2022-10-01T04:31:47.811Z,943.31
2022-10-01T04:32:47.715Z,939.93
2022-10-01T04:33:47.695Z,938.87
2022-10-01T04:34:47.714Z,938.96
2022-10-01T04:35:47.703Z,938.55
2022-10-01T04:36:47.684Z,938.45
2022-10-01T04:37:47.675Z,937.34
2022-10-01T04:38:47.654Z,936.73
2022-10-01T04:39:47.629Z,936.53
2022-10-01T04:40:47.616Z,935.34
2022-10-01T04:41:47.901Z,933.41
2022-10-01T04:42:47.590Z,933.07
2022-10-01T04:43:47.591Z,933.11
2022-10-01T04:44:47.594Z,933.44
2022-10-01T04:45:47.566Z,933.94
2022-10-01T04:46:47.619Z,934.57
2022-10-01T04:47:47.525Z,934.78
2022-10-01T04:48:47.540Z,935.18
2022-10-01T04:49:47.879Z,934.49
2022-10-01T04:50:47.497Z,934.96
2022-10-01T04:51:47.788Z,934.79
2022-10-01T04:52:47.748Z,935.45
2022-10-01T04:53:47.459Z,934.98
2022-10-01T04:54:47.479Z,933.94
2022-10-01T04:55:47.433Z,933.70
2022-10-01T04:56:47.502Z,933.02
2022-10-01T04:57:47.408Z,933.35
2022-10-01T04:58:47.687Z,933.59
2022-10-01T04:59:47.418Z,934.74
2022-10-01T05:00:47.459Z,935.13
2022-10-01T05:01:47.704Z,936.00
2022-10-01T05:02:47.398Z,936.59
2022-10-01T05:03:47.380Z,936.10
2022-10-01T05:04:47.332Z,937.55
2022-10-01T05:05:47.600Z,939.55
2022-10-01T05:06:47.436Z,939.87
2022-10-01T05:07:47.297Z,941.48
2022-10-01T05:08:47.559Z,942.54
2022-10-01T05:09:47.566Z,942.27
2022-10-01T05:10:47.263Z,941.73
2022-10-01T05:11:47.260Z,940.89
2022-10-01T05:12:47.261Z,941.07
2022-10-01T05:13:47.240Z,941.32
2022-10-01T05:14:47.248Z,941.14
2022-10-01T05:15:47.231Z,941.03
2022-10-01T05:16:47.235Z,941.11
2022-10-01T05:17:47.190Z,940.73
2022-10-01T05:18:47.194Z,940.23
2022-10-01T05:19:47.479Z,939.75
2022-10-01T05:20:47.443Z,939.71
2022-10-01T05:21:47.141Z,939.26
2022-10-01T05:22:47.150Z,938.79
2022-10-01T05:23:47.123Z,939.21
2022-10-01T05:24:47.112Z,938.97
2022-10-01T05:25:47.433Z,935.63
2022-10-01T05:26:47.351Z,935.14
2022-10-01T05:27:47.124Z,934.82
2022-10-01T05:28:47.062Z,933.92
2022-10-01T05:29:48.162Z,932.75
2022-10-01T05:30:47.074Z,931.91
2022-10-01T05:31:47.095Z,931.64
2022-10-01T05:32:47.312Z,932.29
2022-10-01T05:33:47.029Z,933.09
2022-10-01T05:34:49.966Z,932.74
2022-10-01T05:35:47.992Z,931.90
2022-10-01T05:36:46.983Z,931.12
2022-10-01T05:37:46.977Z,930.53
2022-10-01T05:38:46.933Z,930.22
2022-10-01T05:39:46.963Z,929.03
2022-10-01T05:40:47.285Z,928.74
2022-10-01T05:41:46.932Z,929.45
2022-10-01T05:42:47.304Z,931.57
2022-10-01T05:43:46.925Z,932.37
2022-10-01T05:44:46.886Z,933.01
2022-10-01T05:45:46.958Z,931.38
2022-10-01T05:46:46.869Z,930.54
2022-10-01T05:47:46.850Z,929.88
2022-10-01T05:48:46.834Z,930.54
2022-10-01T05:49:47.105Z,929.66
2022-10-01T05:50:47.069Z,927.96
2022-10-01T05:51:46.813Z,928.73
2022-10-01T05:52:46.785Z,927.33
2022-10-01T05:53:50.187Z,927.03
2022-10-01T05:54:46.753Z,928.04
2022-10-01T05:55:46.745Z,929.11
2022-10-01T05:56:47.035Z,930.03
2022-10-01T05:57:46.726Z,930.67
2022-10-01T05:58:46.713Z,928.92
2022-10-01T05:59:46.710Z,924.55
2022-10-01T06:00:46.995Z,920.86
2022-10-01T06:01:46.747Z,919.44
2022-10-01T06:02:46.709Z,919.91
2022-10-01T06:03:46.676Z,921.33
2022-10-01T06:04:46.656Z,923.11
2022-10-01T06:05:46.648Z,924.12
2022-10-01T06:06:46.637Z,924.61
2022-10-01T06:07:46.617Z,924.13
2022-10-01T06:08:46.598Z,923.14
2022-10-01T06:09:46.577Z,922.61
2022-10-01T06:10:46.618Z,921.94
2022-10-01T06:11:46.866Z,922.22
2022-10-01T06:12:46.558Z,922.87
2022-10-01T06:13:46.819Z,922.27
2022-10-01T06:14:46.548Z,919.93
2022-10-01T06:15:46.529Z,918.54
2022-10-01T06:16:46.579Z,917.20
2022-10-01T06:17:46.518Z,916.91
2022-10-01T06:18:46.489Z,918.46
2022-10-01T06:19:46.469Z,920.59
2022-10-01T06:20:46.495Z,921.90
2022-10-01T06:21:46.748Z,922.39
2022-10-01T06:22:46.449Z,919.50
2022-10-01T06:23:46.708Z,918.90
2022-10-01T06:24:46.722Z,917.66
2022-10-01T06:25:46.405Z,917.29
2022-10-01T06:26:46.419Z,918.69
2022-10-01T06:27:46.424Z,919.08
2022-10-01T06:28:46.379Z,920.10
2022-10-01T06:29:46.360Z,921.29
2022-10-01T06:30:46.369Z,921.74
2022-10-01T06:31:46.365Z,919.16
2022-10-01T06:32:46.345Z,917.68
2022-10-01T06:33:46.320Z,917.80
2022-10-01T06:34:46.320Z,919.55
2022-10-01T06:35:46.308Z,920.98
2022-10-01T06:36:46.280Z,922.45
2022-10-01T06:37:46.341Z,921.12
2022-10-01T06:38:46.285Z,919.52
2022-10-01T06:39:46.254Z,920.79
2022-10-01T06:40:46.516Z,920.42
2022-10-01T06:41:46.551Z,920.17
2022-10-01T06:42:46.213Z,922.72
2022-10-01T06:43:46.211Z,927.10
2022-10-01T06:44:46.222Z,934.05
2022-10-01T06:45:46.239Z,937.45
2022-10-01T06:46:46.189Z,934.46
2022-10-01T06:47:46.191Z,932.58
2022-10-01T06:48:46.152Z,934.80
2022-10-01T06:49:47.852Z,938.92
2022-10-01T06:50:46.161Z,939.96
2022-10-01T06:51:46.130Z,935.68
2022-10-01T06:52:46.107Z,929.00
2022-10-01T06:53:46.092Z,925.43
2022-10-01T06:54:46.105Z,924.28
2022-10-01T06:55:46.084Z,924.58
2022-10-01T06:56:46.063Z,924.09
2022-10-01T06:57:46.343Z,920.89
2022-10-01T06:58:46.051Z,920.54
2022-10-01T06:59:46.031Z,925.18
2022-10-01T07:00:46.114Z,932.33
2022-10-01T07:01:46.473Z,935.21
2022-10-01T07:02:46.036Z,936.52
2022-10-01T07:03:45.983Z,940.58
2022-10-01T07:04:45.987Z,945.01
2022-10-01T07:05:45.984Z,949.32
2022-10-01T07:06:45.947Z,951.78
2022-10-01T07:07:46.211Z,951.97
2022-10-01T07:08:45.954Z,951.64
2022-10-01T07:09:45.944Z,950.80
2022-10-01T07:10:46.755Z,948.21
2022-10-01T07:11:45.929Z,947.83
2022-10-01T07:12:45.889Z,956.48
2022-10-01T07:13:45.866Z,965.70
2022-10-01T07:14:45.873Z,967.28
2022-10-01T07:15:46.136Z,965.06
2022-10-01T07:16:45.925Z,964.52
2022-10-01T07:17:45.825Z,965.11
2022-10-01T07:18:45.833Z,968.04
2022-10-01T07:19:45.797Z,972.70
2022-10-01T07:20:45.801Z,976.65
2022-10-01T07:21:45.802Z,980.22
2022-10-01T07:22:45.779Z,984.53
2022-10-01T07:23:45.749Z,988.11
2022-10-01T07:24:45.759Z,991.73
2022-10-01T07:25:46.039Z,994.87
2022-10-01T07:26:45.720Z,997.68
2022-10-01T07:27:45.720Z,999.66
2022-10-01T07:28:45.708Z,1001.25
2022-10-01T07:29:45.680Z,1001.48
2022-10-01T07:30:49.589Z,1002.67
2022-10-01T07:31:45.732Z,1005.92
2022-10-01T07:32:45.667Z,1010.43
2022-10-01T07:33:45.656Z,1012.03
2022-10-01T07:34:45.619Z,1013.13
2022-10-01T07:35:45.650Z,1013.37
2022-10-01T07:36:45.640Z,1016.77
2022-10-01T07:37:45.598Z,1017.76
2022-10-01T07:38:45.857Z,1021.83
2022-10-01T07:39:45.580Z,1020.89
2022-10-01T07:40:45.559Z,1015.80
2022-10-01T07:41:46.343Z,1011.16
2022-10-01T07:42:45.551Z,1008.75
2022-10-01T07:43:45.533Z,1005.83
2022-10-01T07:44:45.507Z,1004.49
2022-10-01T07:45:45.571Z,1005.14
2022-10-01T07:46:45.510Z,1005.68
2022-10-01T07:47:45.470Z,1005.63
2022-10-01T07:48:45.731Z,1003.33
2022-10-01T07:49:45.732Z,1002.79
2022-10-01T07:50:45.442Z,1000.89
2022-10-01T07:51:45.440Z,998.10
2022-10-01T07:52:45.432Z,997.07
2022-10-01T07:53:45.411Z,995.84
2022-10-01T07:54:45.385Z,993.94
2022-10-01T07:55:45.402Z,990.72
2022-10-01T07:56:45.393Z,988.71
2022-10-01T07:57:45.362Z,988.12
2022-10-01T07:58:45.363Z,990.54
2022-10-01T07:59:45.347Z,990.21
2022-10-01T08:00:45.334Z,987.33
2022-10-01T08:01:45.360Z,977.94
2022-10-01T08:02:45.355Z,975.81
2022-10-01T08:03:45.304Z,974.63
2022-10-01T08:04:45.273Z,971.48
2022-10-01T08:05:45.276Z,970.01
2022-10-01T08:06:45.316Z,970.31
2022-10-01T08:07:45.247Z,973.69
2022-10-01T08:08:45.240Z,973.27
2022-10-01T08:09:45.273Z,970.83
2022-10-01T08:10:45.213Z,967.94
2022-10-01T08:11:45.220Z,967.42
2022-10-01T08:12:45.221Z,967.69
2022-10-01T08:13:45.174Z,972.30
2022-10-01T08:14:45.155Z,965.36
2022-10-01T08:15:45.135Z,954.21
2022-10-01T08:16:45.257Z,948.45
2022-10-01T08:17:45.136Z,945.32
2022-10-01T08:18:45.127Z,940.65
2022-10-01T08:19:45.388Z,959.90
2022-10-01T08:20:45.365Z,992.19
2022-10-01T08:21:45.106Z,1010.83
2022-10-01T08:22:45.087Z,1014.43
2022-10-01T08:23:45.066Z,1010.15
2022-10-01T08:24:45.042Z,998.60
2022-10-01T08:25:45.040Z,979.41
2022-10-01T08:26:45.099Z,967.02
2022-10-01T08:27:45.007Z,970.32
2022-10-01T08:28:44.998Z,991.25
2022-10-01T08:29:44.987Z,999.96
2022-10-01T08:30:44.988Z,999.47
2022-10-01T08:31:45.022Z,995.92
2022-10-01T08:32:44.950Z,986.76
2022-10-01T08:33:44.948Z,973.81
2022-10-01T08:34:44.918Z,971.17
2022-10-01T08:35:44.920Z,982.18
2022-10-01T08:36:44.954Z,990.17
2022-10-01T08:37:45.169Z,1000.53
2022-10-01T08:38:45.971Z,1017.99
2022-10-01T08:39:44.860Z,1023.50
2022-10-01T08:40:44.870Z,1016.42
2022-10-01T08:41:45.333Z,1005.00
2022-10-01T08:42:44.830Z,991.73
2022-10-01T08:43:44.840Z,986.96
2022-10-01T08:44:44.812Z,983.43
2022-10-01T08:45:44.884Z,977.70
2022-10-01T08:46:44.846Z,975.09
2022-10-01T08:47:44.777Z,984.38
2022-10-01T08:48:44.761Z,1003.57
2022-10-01T08:49:44.750Z,1004.54
2022-10-01T08:50:44.758Z,997.69
2022-10-01T08:51:44.722Z,995.52
2022-10-01T08:52:44.702Z,990.78
2022-10-01T08:53:44.711Z,990.00
2022-10-01T08:54:44.700Z,994.28
2022-10-01T08:55:44.699Z,996.31
2022-10-01T08:56:44.717Z,999.08
2022-10-01T08:57:44.680Z,1003.66
2022-10-01T08:58:44.641Z,998.95
2022-10-01T08:59:44.622Z,1008.15
2022-10-01T09:00:44.710Z,1015.39
2022-10-01T09:01:44.662Z,1007.59
2022-10-01T09:02:44.584Z,1000.24
2022-10-01T09:03:44.584Z,990.43
2022-10-01T09:04:44.609Z,973.56
2022-10-01T09:05:44.563Z,949.51
2022-10-01T09:06:44.590Z,919.08
2022-10-01T09:07:44.545Z,914.12
2022-10-01T09:08:44.525Z,907.97
2022-10-01T09:09:44.515Z,878.80
2022-10-01T09:10:44.514Z,878.58
2022-10-01T09:11:44.484Z,908.56
2022-10-01T09:12:44.480Z,899.29
2022-10-01T09:13:49.346Z,920.08
2022-10-01T09:14:45.494Z,933.04
2022-10-01T09:15:44.445Z,940.03
2022-10-01T09:16:44.540Z,955.93
2022-10-01T09:17:44.426Z,969.54
2022-10-01T09:18:44.722Z,975.02
2022-10-01T09:19:47.780Z,983.62
2022-10-01T09:20:44.386Z,991.51
2022-10-01T09:21:44.387Z,997.08
2022-10-01T09:22:44.382Z,1002.83
2022-10-01T09:23:44.345Z,1005.31
2022-10-01T09:24:44.360Z,1006.41
2022-10-01T09:25:45.417Z,1008.06
2022-10-01T09:26:44.327Z,1007.78
2022-10-01T09:27:44.371Z,1007.44
2022-10-01T09:28:44.307Z,1008.56
2022-10-01T09:29:44.289Z,1007.23
2022-10-01T09:30:44.298Z,1005.66
2022-10-01T09:31:44.307Z,1005.27
2022-10-01T09:32:44.249Z,1006.88
2022-10-01T09:33:44.248Z,1011.39
2022-10-01T09:34:44.243Z,1015.76
2022-10-01T09:35:44.507Z,1019.55
2022-10-01T09:36:44.199Z,1021.92
2022-10-01T09:37:44.202Z,1022.99
2022-10-01T09:38:44.191Z,1024.32
2022-10-01T09:39:44.169Z,1025.88
2022-10-01T09:40:44.163Z,1028.24
2022-10-01T09:41:44.429Z,1027.50
2022-10-01T09:42:44.152Z,1020.04
2022-10-01T09:43:44.123Z,1013.01
2022-10-01T09:44:44.159Z,1007.96
2022-10-01T09:45:44.444Z,1005.12
2022-10-01T09:46:44.081Z,1006.81
2022-10-01T09:47:44.081Z,1008.62
2022-10-01T09:48:44.090Z,1008.99
2022-10-01T09:49:44.099Z,1005.47
2022-10-01T09:50:44.034Z,997.55
2022-10-01T09:51:45.467Z,979.24
2022-10-01T09:52:44.962Z,960.72
2022-10-01T09:53:44.020Z,941.29
2022-10-01T09:54:44.012Z,939.16
2022-10-01T09:55:44.017Z,969.54
2022-10-01T09:56:43.980Z,987.05
2022-10-01T09:57:43.988Z,1007.57
2022-10-01T09:58:43.984Z,1023.78
2022-10-01T09:59:43.954Z,1028.63
2022-10-01T10:00:43.951Z,1015.82
2022-10-01T10:01:44.022Z,1010.36
2022-10-01T10:02:48.958Z,1036.48
2022-10-01T10:03:46.693Z,960.77
2022-10-01T10:04:43.885Z,992.31
2022-10-01T10:05:44.165Z,975.76
2022-10-01T10:06:44.144Z,970.97
2022-10-01T10:07:44.605Z,968.04
2022-10-01T10:08:44.118Z,967.43
2022-10-01T10:09:43.862Z,966.83
2022-10-01T10:10:44.826Z,964.44
2022-10-01T10:11:44.735Z,963.73
2022-10-01T10:12:43.936Z,965.23
2022-10-01T10:13:44.543Z,967.99
2022-10-01T10:14:43.768Z,973.13
2022-10-01T10:15:43.795Z,981.98
2022-10-01T10:16:44.758Z,998.63
2022-10-01T10:17:43.736Z,967.89
2022-10-01T10:18:43.748Z,1012.52
2022-10-01T10:19:44.051Z,1003.40
2022-10-01T10:20:43.704Z,970.14
2022-10-01T10:21:43.707Z,977.13
2022-10-01T10:22:43.687Z,990.52
2022-10-01T10:23:43.668Z,1032.34
2022-10-01T10:24:43.677Z,1017.30
2022-10-01T10:25:43.703Z,1022.72
2022-10-01T10:26:43.646Z,1007.66
2022-10-01T10:27:43.650Z,1003.40
2022-10-01T10:28:44.350Z,991.97
2022-10-01T10:29:43.609Z,965.61
2022-10-01T10:30:43.608Z,958.22
2022-10-01T10:31:43.661Z,1002.88
2022-10-01T10:32:43.867Z,1010.49
2022-10-01T10:33:43.563Z,1015.75
2022-10-01T10:34:43.547Z,1010.47
2022-10-01T10:35:43.846Z,1028.32
2022-10-01T10:36:43.531Z,1021.99
2022-10-01T10:37:43.535Z,1018.95
2022-10-01T10:38:43.502Z,1009.56
2022-10-01T10:39:43.525Z,988.97
2022-10-01T10:40:43.519Z,990.27
2022-10-01T10:41:43.452Z,1006.80
2022-10-01T10:42:44.322Z,1012.67
2022-10-01T10:43:43.423Z,997.98
2022-10-01T10:44:43.435Z,930.16
2022-10-01T10:45:43.429Z,811.98
2022-10-01T10:46:46.157Z,770.11
2022-10-01T10:47:43.397Z,765.29
2022-10-01T10:48:43.416Z,773.01
2022-10-01T10:49:43.420Z,798.12
2022-10-01T10:50:43.356Z,881.00
2022-10-01T10:51:43.328Z,960.94
2022-10-01T10:52:45.693Z,993.39
2022-10-01T10:53:43.334Z,1002.36
2022-10-01T10:54:44.048Z,1011.35
2022-10-01T10:55:43.307Z,1003.72
2022-10-01T10:56:43.287Z,986.11
2022-10-01T10:57:43.305Z,991.22
2022-10-01T10:58:43.254Z,1008.84
2022-10-01T10:59:43.527Z,969.64
2022-10-01T11:00:44.126Z,973.02
2022-10-01T11:01:43.419Z,929.63
2022-10-01T11:02:44.489Z,968.16
2022-10-01T11:03:43.937Z,868.46
2022-10-01T11:04:44.004Z,997.93
2022-10-01T11:05:43.935Z,1002.88
2022-10-01T11:06:43.747Z,987.10
2022-10-01T11:07:43.249Z,961.42
2022-10-01T11:08:43.536Z,899.21
2022-10-01T11:09:44.269Z,888.14
2022-10-01T11:10:44.185Z,840.93
2022-10-01T11:11:44.090Z,857.27
2022-10-01T11:12:43.167Z,974.53
2022-10-01T11:13:43.648Z,959.31
2022-10-01T11:14:43.059Z,974.60
2022-10-01T11:15:43.419Z,972.73
2022-10-01T11:16:43.051Z,974.32
2022-10-01T11:17:43.041Z,953.59
2022-10-01T11:18:43.010Z,973.17
2022-10-01T11:19:43.032Z,983.06
2022-10-01T11:20:42.979Z,991.74
2022-10-01T11:21:42.981Z,956.56
2022-10-01T11:22:43.030Z,967.30
2022-10-01T11:23:42.959Z,970.43
2022-10-01T11:24:42.951Z,951.03
2022-10-01T11:25:43.234Z,945.43
2022-10-01T11:26:42.941Z,934.66
2022-10-01T11:27:42.919Z,942.28
2022-10-01T11:28:42.891Z,946.15
2022-10-01T11:29:42.902Z,964.65
2022-10-01T11:30:42.870Z,971.05
2022-10-01T11:31:42.913Z,960.28
2022-10-01T11:32:42.875Z,953.92
2022-10-01T11:33:42.862Z,964.86
2022-10-01T11:34:42.854Z,976.34
2022-10-01T11:35:42.822Z,983.91
2022-10-01T11:36:42.821Z,980.36
2022-10-01T11:37:42.798Z,974.71
2022-10-01T11:38:42.779Z,968.40
2022-10-01T11:39:43.044Z,971.90
2022-10-01T11:40:42.786Z,963.61
2022-10-01T11:41:42.734Z,948.09
2022-10-01T11:42:43.039Z,948.65
2022-10-01T11:43:42.733Z,951.78
2022-10-01T11:44:42.716Z,949.52
2022-10-01T11:45:42.704Z,956.37
2022-10-01T11:46:43.017Z,965.89
2022-10-01T11:47:42.733Z,966.44
2022-10-01T11:48:42.656Z,966.32
2022-10-01T11:49:42.682Z,758.42
2022-10-01T11:50:42.660Z,754.59
2022-10-01T11:51:42.626Z,761.62
2022-10-01T11:52:42.626Z,769.94
2022-10-01T11:53:42.628Z,779.19
2022-10-01T11:54:42.597Z,797.03
2022-10-01T11:55:42.596Z,846.04
2022-10-01T11:56:42.591Z,889.31
2022-10-01T11:57:42.578Z,909.30
2022-10-01T11:58:42.560Z,921.82
2022-10-01T11:59:43.259Z,945.09
2022-10-01T12:00:42.542Z,1007.16
2022-10-01T12:01:42.557Z,965.88
2022-10-01T12:02:42.500Z,974.91
2022-10-01T12:03:42.511Z,981.52
2022-10-01T12:04:42.502Z,975.71
2022-10-01T12:05:42.521Z,951.26
2022-10-01T12:06:43.427Z,923.43
2022-10-01T12:07:42.460Z,975.38
2022-10-01T12:08:42.670Z,962.74
2022-10-01T12:09:42.432Z,945.75
2022-10-01T12:10:42.430Z,988.43
2022-10-01T12:11:42.409Z,986.50
2022-10-01T12:12:42.392Z,965.78
2022-10-01T12:13:42.404Z,981.11
2022-10-01T12:14:42.393Z,902.94
2022-10-01T12:15:42.377Z,767.82
2022-10-01T12:16:42.497Z,735.44
2022-10-01T12:17:42.366Z,733.00
2022-10-01T12:18:42.321Z,742.96
2022-10-01T12:19:42.322Z,747.42
2022-10-01T12:20:42.562Z,880.41
2022-10-01T12:21:42.554Z,964.61
2022-10-01T12:22:42.275Z,944.12
2022-10-01T12:23:42.285Z,955.44
2022-10-01T12:24:42.348Z,953.53
2022-10-01T12:25:42.257Z,957.85